Time;durP1;ratioP1;P1;durP2;ratioP2;P2;SDS_P1;SDS_P2;PMS_P1;PMS_P2;Temp;Humidity;BMP_temperature;BMP_pressure;BME280_temperature;BME280_humidity;BME280_pressure;Samples;Min_cycle;Max_cycle;Signal;HPM_P1;HPM_P2
2022/07/16 00:02:17;;;;;;;1.92;1.00;;;;;;;;;;4970495;28;20125;-65
2022/07/16 00:04:44;;;;;;;1.20;0.82;;;;;;;;;;4974377;28;20039;-65
2022/07/16 00:07:11;;;;;;;1.35;0.85;;;;;;;;;;4970758;28;20050;-66
2022/07/16 00:09:38;;;;;;;1.27;0.90;;;;;;;;;;4975430;28;20050;-66
2022/07/16 00:12:05;;;;;;;1.75;0.80;;;;;;;;;;4980971;28;20046;-65
2022/07/16 00:14:34;;;;;;;2.03;0.93;;;;;;;;;;4991569;28;20054;-65
2022/07/16 00:17:01;;;;;;;1.60;0.70;;;;;;;;;;4978782;28;20042;-65
2022/07/16 00:19:28;;;;;;;3.30;1.00;;;;;;;;;;4991091;28;20043;-65
2022/07/16 00:21:56;;;;;;;1.48;0.82;;;;;;;;;;4983867;28;20078;-65
2022/07/16 00:24:23;;;;;;;2.65;0.77;;;;;;;;;;4991291;28;20042;-65
2022/07/16 00:26:49;;;;;;;2.45;1.10;;;;;;;;;;4978140;28;20146;-65
2022/07/16 00:29:18;;;;;;;3.00;0.82;;;;;;;;;;4974018;28;20109;-65
2022/07/16 00:31:45;;;;;;;5.15;1.10;;;;;;;;;;4960989;28;20046;-65
2022/07/16 00:34:12;;;;;;;2.83;1.08;;;;;;;;;;4973851;28;20042;-65
2022/07/16 00:36:40;;;;;;;2.05;1.08;;;;;;;;;;4969579;28;20108;-66
2022/07/16 00:39:09;;;;;;;1.33;0.90;;;;;;;;;;4974956;28;20047;-66
2022/07/16 00:41:36;;;;;;;0.80;0.60;;;;;;;;;;4970586;28;20124;-65
2022/07/16 00:44:04;;;;;;;1.08;0.80;;;;;;;;;;4976122;28;20073;-66
2022/07/16 00:46:31;;;;;;;2.15;1.17;;;;;;;;;;4973489;28;20108;-65
2022/07/16 00:49:04;;;;;;;1.23;0.80;;;;;;;;;;4983791;28;20082;-65
2022/07/16 00:51:31;;;;;;;1.38;0.80;;;;;;;;;;4992332;28;20157;-65
2022/07/16 00:53:59;;;;;;;1.70;0.82;;;;;;;;;;4978850;28;20053;-65
2022/07/16 00:56:26;;;;;;;4.57;1.05;;;;;;;;;;4976391;28;20209;-65
2022/07/16 00:58:54;;;;;;;1.65;0.90;;;;;;;;;;4973136;28;20050;-66
2022/07/16 01:01:21;;;;;;;2.37;1.23;;;;;;;;;;4973296;28;20060;-66
2022/07/16 01:03:48;;;;;;;2.38;1.33;;;;;;;;;;4980792;28;20054;-66
2022/07/16 01:06:15;;;;;;;4.55;1.25;;;;;;;;;;4971644;28;20055;-66
2022/07/16 01:08:48;;;;;;;1.65;1.00;;;;;;;;;;4978850;28;20126;-66
2022/07/16 01:11:19;;;;;;;7.43;1.58;;;;;;;;;;4966879;28;20086;-66
2022/07/16 01:13:46;;;;;;;2.03;1.10;;;;;;;;;;4969224;28;20055;-65
2022/07/16 01:16:13;;;;;;;1.70;1.00;;;;;;;;;;4967364;28;20053;-65
2022/07/16 01:18:42;;;;;;;3.42;0.80;;;;;;;;;;4971842;28;20105;-66
2022/07/16 01:21:09;;;;;;;2.33;1.08;;;;;;;;;;4979349;28;20081;-65
2022/07/16 01:23:37;;;;;;;2.97;1.13;;;;;;;;;;5007803;28;20073;-66
2022/07/16 01:26:04;;;;;;;5.82;1.70;;;;;;;;;;4968927;28;20062;-66
2022/07/16 01:28:40;;;;;;;3.85;1.90;;;;;;;;;;4972301;28;20110;-65
2022/07/16 01:31:06;;;;;;;2.70;1.40;;;;;;;;;;4962773;28;20070;-65
2022/07/16 01:33:34;;;;;;;2.08;0.98;;;;;;;;;;4990484;28;20051;-65
2022/07/16 01:36:02;;;;;;;2.05;1.10;;;;;;;;;;4979026;28;20058;-66
2022/07/16 01:38:29;;;;;;;2.92;1.05;;;;;;;;;;5006338;28;20054;-66
2022/07/16 01:40:57;;;;;;;3.47;1.17;;;;;;;;;;4983516;28;20121;-65
2022/07/16 01:43:24;;;;;;;2.25;1.15;;;;;;;;;;4983771;28;20117;-65
2022/07/16 01:45:51;;;;;;;2.97;1.58;;;;;;;;;;4983344;28;20057;-65
2022/07/16 01:48:18;;;;;;;3.28;1.70;;;;;;;;;;4992538;28;20077;-65
2022/07/16 01:50:45;;;;;;;4.82;1.73;;;;;;;;;;4971096;28;20051;-65
2022/07/16 01:53:12;;;;;;;2.17;1.20;;;;;;;;;;4965188;28;20058;-65
2022/07/16 01:55:39;;;;;;;3.10;1.20;;;;;;;;;;4970991;28;20047;-66
2022/07/16 01:58:09;;;;;;;3.38;1.48;;;;;;;;;;4963510;28;20050;-66
2022/07/16 02:00:36;;;;;;;2.60;1.25;;;;;;;;;;4969840;28;20055;-66
2022/07/16 02:03:03;;;;;;;2.08;1.10;;;;;;;;;;4964572;28;20051;-66
2022/07/16 02:05:29;;;;;;;6.68;1.63;;;;;;;;;;4979662;28;20179;-66
2022/07/16 02:07:56;;;;;;;3.10;1.48;;;;;;;;;;4982790;28;20050;-67
2022/07/16 02:10:23;;;;;;;4.47;1.58;;;;;;;;;;4982766;28;20047;-67
2022/07/16 02:12:50;;;;;;;4.32;1.30;;;;;;;;;;5006010;28;20047;-66
2022/07/16 02:15:18;;;;;;;3.60;1.30;;;;;;;;;;4998732;28;20047;-66
2022/07/16 02:17:45;;;;;;;2.40;1.20;;;;;;;;;;4968925;28;20061;-66
2022/07/16 02:20:12;;;;;;;2.30;1.20;;;;;;;;;;4965427;28;20141;-66
2022/07/16 02:22:39;;;;;;;5.05;1.27;;;;;;;;;;4985719;28;20046;-66
2022/07/16 02:25:07;;;;;;;3.38;0.90;;;;;;;;;;4991687;28;20050;-66
2022/07/16 02:27:34;;;;;;;2.92;1.27;;;;;;;;;;4981442;28;20042;-66
2022/07/16 02:30:12;;;;;;;2.40;1.10;;;;;;;;;;4981534;28;20070;-66
2022/07/16 02:32:39;;;;;;;5.15;1.80;;;;;;;;;;4986382;28;20053;-66
2022/07/16 02:35:06;;;;;;;4.22;1.60;;;;;;;;;;4983492;28;20052;-67
2022/07/16 02:37:33;;;;;;;3.42;1.58;;;;;;;;;;4985018;28;20046;-66
2022/07/16 02:40:01;;;;;;;4.90;1.80;;;;;;;;;;4983167;28;20047;-66
2022/07/16 02:42:27;;;;;;;4.13;1.60;;;;;;;;;;4983121;28;20108;-66
2022/07/16 02:44:54;;;;;;;5.45;1.52;;;;;;;;;;4984957;28;20062;-67
2022/07/16 02:47:23;;;;;;;4.43;1.95;;;;;;;;;;4987753;28;20077;-66
2022/07/16 02:49:51;;;;;;;8.15;1.90;;;;;;;;;;4993384;28;20061;-66
2022/07/16 02:52:18;;;;;;;3.83;1.30;;;;;;;;;;4987465;28;20104;-66
2022/07/16 02:54:45;;;;;;;3.58;1.30;;;;;;;;;;4996425;28;20072;-66
2022/07/16 02:57:11;;;;;;;5.30;1.70;;;;;;;;;;4988505;28;20053;-67
2022/07/16 02:59:38;;;;;;;10.02;1.95;;;;;;;;;;4989859;28;20064;-67
2022/07/16 03:02:08;;;;;;;3.40;1.10;;;;;;;;;;4983614;28;20054;-67
2022/07/16 03:04:35;;;;;;;7.30;1.80;;;;;;;;;;4992439;28;20109;-66
2022/07/16 03:07:03;;;;;;;4.10;1.73;;;;;;;;;;4986776;28;20054;-66
2022/07/16 03:09:30;;;;;;;2.45;1.25;;;;;;;;;;4988848;28;20054;-66
2022/07/16 03:11:56;;;;;;;4.85;1.90;;;;;;;;;;4982613;28;20046;-66
2022/07/16 03:14:23;;;;;;;2.45;1.23;;;;;;;;;;4988489;28;20050;-66
2022/07/16 03:16:50;;;;;;;4.07;1.70;;;;;;;;;;4992501;28;20062;-66
2022/07/16 03:19:19;;;;;;;2.33;1.00;;;;;;;;;;4987011;28;20093;-66
2022/07/16 03:21:45;;;;;;;4.22;1.20;;;;;;;;;;4996348;28;20053;-67
2022/07/16 03:24:13;;;;;;;6.45;2.13;;;;;;;;;;4975123;28;20058;-67
2022/07/16 03:26:40;;;;;;;4.10;1.90;;;;;;;;;;4988532;28;20047;-67
2022/07/16 03:29:08;;;;;;;5.22;2.17;;;;;;;;;;4969583;28;20054;-66
2022/07/16 03:31:35;;;;;;;;;;;;;;;;;;4992771;28;20050;-66
2022/07/16 03:34:04;;;;;;;6.53;1.98;;;;;;;;;;4980909;28;19937;-67
2022/07/16 03:36:31;;;;;;;3.47;1.60;;;;;;;;;;4993530;28;20065;-67
2022/07/16 03:39:13;;;;;;;6.07;1.63;;;;;;;;;;4979658;28;20038;-67
2022/07/16 03:41:41;;;;;;;3.28;1.83;;;;;;;;;;4993396;28;20060;-67
2022/07/16 03:44:08;;;;;;;2.58;1.30;;;;;;;;;;4987433;28;20092;-67
2022/07/16 03:46:35;;;;;;;3.88;1.30;;;;;;;;;;4989306;28;20050;-66
2022/07/16 03:49:03;;;;;;;6.22;2.45;;;;;;;;;;4980976;28;20074;-67
2022/07/16 03:51:30;;;;;;;3.47;1.37;;;;;;;;;;4991497;28;20060;-67
2022/07/16 03:53:56;;;;;;;4.55;1.83;;;;;;;;;;4984678;28;20061;-67
2022/07/16 03:56:24;;;;;;;5.63;1.83;;;;;;;;;;4986596;28;20073;-67
2022/07/16 03:58:53;;;;;;;5.03;1.90;;;;;;;;;;4991603;28;20054;-67
2022/07/16 04:01:19;;;;;;;3.15;1.45;;;;;;;;;;4979195;28;20054;-67
2022/07/16 04:03:46;;;;;;;4.55;2.05;;;;;;;;;;4992337;28;20050;-67
2022/07/16 04:06:13;;;;;;;1.85;1.23;;;;;;;;;;4983192;28;20137;-67
2022/07/16 04:08:57;;;;;;;4.20;2.35;;;;;;;;;;4993073;28;20054;-67
2022/07/16 04:11:24;;;;;;;4.47;1.90;;;;;;;;;;4982661;28;20065;-67
2022/07/16 04:13:50;;;;;;;3.80;1.35;;;;;;;;;;4983325;28;20042;-67
2022/07/16 04:16:18;;;;;;;7.78;2.45;;;;;;;;;;4985822;28;20078;-67
2022/07/16 04:18:59;;;;;;;6.13;2.30;;;;;;;;;;4991047;28;20046;-67
2022/07/16 04:21:26;;;;;;;4.43;1.75;;;;;;;;;;4982517;28;20050;-67
2022/07/16 04:23:53;;;;;;;4.90;1.92;;;;;;;;;;4979431;28;20123;-67
2022/07/16 04:26:20;;;;;;;2.90;1.13;;;;;;;;;;4980863;28;20042;-67
2022/07/16 04:28:49;;;;;;;9.75;2.25;;;;;;;;;;4991332;28;20070;-67
2022/07/16 04:31:16;;;;;;;10.00;2.20;;;;;;;;;;4981829;28;20054;-67
2022/07/16 04:33:44;;;;;;;5.18;2.10;;;;;;;;;;4984462;28;20056;-67
2022/07/16 04:36:11;;;;;;;7.18;1.95;;;;;;;;;;4987290;28;20056;-67
2022/07/16 04:38:40;;;;;;;3.80;1.30;;;;;;;;;;4988631;28;20077;-67
2022/07/16 04:41:07;;;;;;;4.10;1.42;;;;;;;;;;4979495;28;20046;-67
2022/07/16 04:43:33;;;;;;;3.50;1.30;;;;;;;;;;4990967;28;20058;-67
2022/07/16 04:46:00;;;;;;;6.82;1.40;;;;;;;;;;4984452;28;20082;-67
2022/07/16 04:48:28;;;;;;;2.67;1.20;;;;;;;;;;4985875;28;20054;-67
2022/07/16 04:50:56;;;;;;;5.03;1.27;;;;;;;;;;4983574;28;20125;-67
2022/07/16 04:53:22;;;;;;;4.78;1.27;;;;;;;;;;4986006;28;20082;-66
2022/07/16 04:55:49;;;;;;;2.83;1.15;;;;;;;;;;4991323;28;20058;-67
2022/07/16 04:58:16;;;;;;;2.80;1.20;;;;;;;;;;4978992;28;20050;-67
2022/07/16 05:00:42;;;;;;;4.68;1.30;;;;;;;;;;4989388;28;20050;-67
2022/07/16 05:03:09;;;;;;;2.55;1.15;;;;;;;;;;4978855;28;20129;-66
2022/07/16 05:05:37;;;;;;;1.30;0.82;;;;;;;;;;4988155;28;20060;-66
2022/07/16 05:08:07;;;;;;;1.55;1.00;;;;;;;;;;4977422;28;20061;-66
2022/07/16 05:10:37;;;;;;;5.82;1.20;;;;;;;;;;4988640;28;20061;-66
2022/07/16 05:13:05;;;;;;;2.03;0.93;;;;;;;;;;4978638;28;20058;-66
2022/07/16 05:15:32;;;;;;;1.25;0.80;;;;;;;;;;4988907;28;20050;-66
2022/07/16 05:17:58;;;;;;;4.78;1.02;;;;;;;;;;4977319;28;20050;-66
2022/07/16 05:20:25;;;;;;;4.65;1.00;;;;;;;;;;4988910;28;20060;-66
2022/07/16 05:22:52;;;;;;;7.88;1.10;;;;;;;;;;4975843;28;20067;-67
2022/07/16 05:25:20;;;;;;;1.98;0.98;;;;;;;;;;4988435;28;20058;-67
2022/07/16 05:27:48;;;;;;;3.00;1.10;;;;;;;;;;4985312;28;20061;-66
2022/07/16 05:30:15;;;;;;;4.68;1.02;;;;;;;;;;4982872;28;20058;-67
2022/07/16 05:32:44;;;;;;;4.20;1.00;;;;;;;;;;4990375;28;20054;-67
2022/07/16 05:35:11;;;;;;;2.13;0.90;;;;;;;;;;4980174;28;20048;-66
2022/07/16 05:37:38;;;;;;;7.28;1.00;;;;;;;;;;4990090;28;20061;-67
2022/07/16 05:40:07;;;;;;;6.05;0.90;;;;;;;;;;4979256;28;20216;-66
2022/07/16 05:42:35;;;;;;;3.55;1.10;;;;;;;;;;4990059;28;20059;-66
2022/07/16 05:45:02;;;;;;;4.80;0.93;;;;;;;;;;4977287;28;20108;-67
2022/07/16 05:47:31;;;;;;;3.25;0.90;;;;;;;;;;4990201;28;20089;-67
2022/07/16 05:49:58;;;;;;;;;;;;;;;;;;4986437;28;20046;-66
2022/07/16 05:52:24;;;;;;;2.65;0.80;;;;;;;;;;4992853;28;19928;-66
2022/07/16 05:54:51;;;;;;;2.38;0.80;;;;;;;;;;4984330;28;20054;-66
2022/07/16 05:57:17;;;;;;;4.03;0.80;;;;;;;;;;4990091;28;20058;-66
2022/07/16 05:59:46;;;;;;;3.13;0.90;;;;;;;;;;4981517;28;20116;-66
2022/07/16 06:02:15;;;;;;;3.15;0.80;;;;;;;;;;4983512;28;20263;-67
2022/07/16 06:04:41;;;;;;;6.63;1.08;;;;;;;;;;4985348;28;20049;-66
2022/07/16 06:07:08;;;;;;;1.65;0.82;;;;;;;;;;4993460;28;20058;-67
2022/07/16 06:09:35;;;;;;;2.70;0.98;;;;;;;;;;4985514;28;20050;-66
2022/07/16 06:12:02;;;;;;;5.72;1.30;;;;;;;;;;4982822;28;20058;-66
2022/07/16 06:14:29;;;;;;;1.40;0.80;;;;;;;;;;4989946;28;20125;-66
2022/07/16 06:16:57;;;;;;;3.67;1.10;;;;;;;;;;4977513;28;20061;-67
2022/07/16 06:19:24;;;;;;;2.53;0.90;;;;;;;;;;4992627;28;20046;-67
2022/07/16 06:21:50;;;;;;;1.27;0.75;;;;;;;;;;4989418;28;20054;-67
2022/07/16 06:24:17;;;;;;;1.73;0.95;;;;;;;;;;4992492;28;20073;-67
2022/07/16 06:26:47;;;;;;;3.03;0.70;;;;;;;;;;4989287;28;20061;-67
2022/07/16 06:29:19;;;;;;;1.67;0.70;;;;;;;;;;4988191;28;20054;-66
2022/07/16 06:31:46;;;;;;;2.70;0.90;;;;;;;;;;4987103;28;20137;-66
2022/07/16 06:34:14;;;;;;;4.07;0.80;;;;;;;;;;4988304;28;20059;-66
2022/07/16 06:36:41;;;;;;;3.38;1.02;;;;;;;;;;4989363;28;20133;-67
2022/07/16 06:39:14;;;;;;;1.02;0.68;;;;;;;;;;4987829;28;20049;-66
2022/07/16 06:41:40;;;;;;;3.60;0.82;;;;;;;;;;4989384;28;20046;-67
2022/07/16 06:44:09;;;;;;;3.03;1.20;;;;;;;;;;4986750;28;20097;-66
2022/07/16 06:46:36;;;;;;;5.63;1.08;;;;;;;;;;4987988;28;20062;-66
2022/07/16 06:49:06;;;;;;;5.47;0.95;;;;;;;;;;4995944;28;20137;-67
2022/07/16 06:51:34;;;;;;;1.00;0.68;;;;;;;;;;4986109;28;20066;-67
2022/07/16 06:54:01;;;;;;;2.90;0.98;;;;;;;;;;4984685;28;20145;-67
2022/07/16 06:56:27;;;;;;;3.67;0.70;;;;;;;;;;4987750;28;20072;-67
2022/07/16 06:58:57;;;;;;;2.65;0.80;;;;;;;;;;4985448;28;20065;-66
2022/07/16 07:01:24;;;;;;;3.30;0.95;;;;;;;;;;4990444;28;20069;-66
2022/07/16 07:03:51;;;;;;;3.75;0.85;;;;;;;;;;4991406;28;20133;-66
2022/07/16 07:06:17;;;;;;;6.13;0.95;;;;;;;;;;4992794;28;20138;-66
2022/07/16 07:08:52;;;;;;;3.05;1.00;;;;;;;;;;4988284;28;20058;-67
2022/07/16 07:11:19;;;;;;;2.53;0.70;;;;;;;;;;4989045;28;20054;-66
2022/07/16 07:13:45;;;;;;;2.97;0.70;;;;;;;;;;4988085;28;20051;-66
2022/07/16 07:16:12;;;;;;;2.03;0.90;;;;;;;;;;4988053;28;20054;-67
2022/07/16 07:18:40;;;;;;;4.45;1.05;;;;;;;;;;4988360;28;20105;-66
2022/07/16 07:21:06;;;;;;;1.60;0.90;;;;;;;;;;4986587;28;20061;-66
2022/07/16 07:23:33;;;;;;;2.35;0.90;;;;;;;;;;4988279;28;20293;-66
2022/07/16 07:26:01;;;;;;;2.15;0.90;;;;;;;;;;4977526;28;20054;-66
2022/07/16 07:28:28;;;;;;;2.97;1.02;;;;;;;;;;4977479;28;20038;-66
2022/07/16 07:30:56;;;;;;;5.55;0.80;;;;;;;;;;4977133;28;20056;-66
2022/07/16 07:33:23;;;;;;;3.93;0.80;;;;;;;;;;4977922;28;20125;-66
2022/07/16 07:35:50;;;;;;;4.93;1.00;;;;;;;;;;4983582;28;20051;-66
2022/07/16 07:38:16;;;;;;;1.38;0.70;;;;;;;;;;4977912;28;20057;-67
2022/07/16 07:40:43;;;;;;;5.03;0.90;;;;;;;;;;4978920;28;20086;-66
2022/07/16 07:43:11;;;;;;;3.97;0.90;;;;;;;;;;4968403;28;20058;-66
2022/07/16 07:45:38;;;;;;;3.13;0.63;;;;;;;;;;4984637;28;20061;-67
2022/07/16 07:48:04;;;;;;;3.95;0.98;;;;;;;;;;4976920;28;20055;-66
2022/07/16 07:50:32;;;;;;;1.45;0.70;;;;;;;;;;4975881;28;20134;-66
2022/07/16 07:52:58;;;;;;;4.43;1.65;;;;;;;;;;4976466;28;20074;-67
2022/07/16 07:55:25;;;;;;;6.15;2.25;;;;;;;;;;4969572;28;20152;-66
2022/07/16 07:57:52;;;;;;;3.53;0.90;;;;;;;;;;4970043;28;20061;-66
2022/07/16 08:00:23;;;;;;;1.42;0.70;;;;;;;;;;4979316;28;20183;-66
2022/07/16 08:02:50;;;;;;;2.63;0.80;;;;;;;;;;4980878;28;20058;-65
2022/07/16 08:05:17;;;;;;;2.53;0.73;;;;;;;;;;4969517;28;20054;-66
2022/07/16 08:07:43;;;;;;;2.17;0.73;;;;;;;;;;4985563;28;20117;-66
2022/07/16 08:10:13;;;;;;;2.55;0.77;;;;;;;;;;4972205;28;20050;-66
2022/07/16 08:12:40;;;;;;;6.47;1.08;;;;;;;;;;4992369;28;20088;-60
2022/07/16 08:15:07;;;;;;;1.95;0.82;;;;;;;;;;4985069;28;20089;-67
2022/07/16 08:17:35;;;;;;;2.83;0.70;;;;;;;;;;4969581;28;20062;-66
2022/07/16 08:20:02;;;;;;;2.92;0.70;;;;;;;;;;4965398;28;20065;-66
2022/07/16 08:22:29;;;;;;;3.17;0.50;;;;;;;;;;4974113;28;20046;-66
2022/07/16 08:27:40;;;;;;;1.60;0.73;;;;;;;;;;4984268;28;20124;-66
2022/07/16 08:30:07;;;;;;;2.47;0.80;;;;;;;;;;4983124;28;20046;-66
2022/07/16 08:32:36;;;;;;;3.90;0.68;;;;;;;;;;4996125;28;20054;-66
2022/07/16 08:35:03;;;;;;;2.05;0.80;;;;;;;;;;4984724;28;20132;-66
2022/07/16 08:37:31;;;;;;;1.38;0.90;;;;;;;;;;4984728;28;20054;-66
2022/07/16 08:39:58;;;;;;;4.93;0.90;;;;;;;;;;4981954;28;20046;-66
2022/07/16 08:42:25;;;;;;;1.63;0.55;;;;;;;;;;5006229;28;20058;-66
2022/07/16 08:44:52;;;;;;;2.33;0.85;;;;;;;;;;4980103;28;20054;-65
2022/07/16 08:47:18;;;;;;;2.67;0.80;;;;;;;;;;4981788;28;20114;-65
2022/07/16 08:49:54;;;;;;;3.80;0.70;;;;;;;;;;4977289;28;20046;-66
2022/07/16 08:52:21;;;;;;;2.55;0.57;;;;;;;;;;4964818;28;20058;-66
2022/07/16 08:54:48;;;;;;;0.98;0.52;;;;;;;;;;4971397;28;20070;-65
2022/07/16 08:57:15;;;;;;;3.35;0.80;;;;;;;;;;4971747;28;20125;-65
2022/07/16 08:59:47;;;;;;;2.45;0.70;;;;;;;;;;4975983;28;20046;-65
2022/07/16 09:02:14;;;;;;;5.00;0.95;;;;;;;;;;4967056;28;20113;-65
2022/07/16 09:04:41;;;;;;;3.80;0.90;;;;;;;;;;4944982;28;20059;-65
2022/07/16 09:07:11;;;;;;;15.68;2.50;;;;;;;;;;4941534;28;20053;-65
2022/07/16 09:09:47;;;;;;;3.35;0.68;;;;;;;;;;4946159;28;20071;-65
2022/07/16 09:12:31;;;;;;;3.42;0.77;;;;;;;;;;4938761;28;20095;-66
2022/07/16 09:14:57;;;;;;;1.80;0.70;;;;;;;;;;4967007;28;20086;-65
2022/07/16 09:17:24;;;;;;;7.00;0.90;;;;;;;;;;4935896;28;20066;-65
2022/07/16 09:19:52;;;;;;;5.07;1.00;;;;;;;;;;4940449;28;20125;-66
2022/07/16 09:22:20;;;;;;;2.15;0.90;;;;;;;;;;4934763;28;20055;-65
2022/07/16 09:24:48;;;;;;;2.72;0.80;;;;;;;;;;4947119;28;20130;-64
2022/07/16 09:27:17;;;;;;;2.95;0.73;;;;;;;;;;4946773;28;20079;-65
2022/07/16 09:29:59;;;;;;;3.47;0.88;;;;;;;;;;4963295;28;20047;-65
2022/07/16 09:32:27;;;;;;;1.63;0.80;;;;;;;;;;4943324;28;20059;-65
2022/07/16 09:35:01;;;;;;;4.10;0.80;;;;;;;;;;4942682;28;20062;-65
2022/07/16 09:37:44;;;;;;;4.60;0.90;;;;;;;;;;4946830;28;20051;-65
2022/07/16 09:40:12;;;;;;;1.85;0.80;;;;;;;;;;4964319;28;20055;-65
2022/07/16 09:42:38;;;;;;;0.77;0.70;;;;;;;;;;4957270;28;20047;-66
2022/07/16 09:45:06;;;;;;;4.75;0.88;;;;;;;;;;4937365;28;20054;-67
2022/07/16 09:47:33;;;;;;;2.30;0.70;;;;;;;;;;4945384;28;20133;-65
2022/07/16 09:50:00;;;;;;;2.20;0.80;;;;;;;;;;4931496;28;20049;-65
2022/07/16 09:52:30;;;;;;;2.60;0.80;;;;;;;;;;4945775;28;20098;-65
2022/07/16 09:54:57;;;;;;;5.32;1.00;;;;;;;;;;4936162;28;20218;-65
2022/07/16 09:57:25;;;;;;;3.10;0.82;;;;;;;;;;4961702;28;20102;-65
2022/07/16 09:59:55;;;;;;;2.58;0.85;;;;;;;;;;4935388;28;20066;-65
2022/07/16 10:02:22;;;;;;;3.83;0.70;;;;;;;;;;4953309;28;20179;-65
2022/07/16 10:04:49;;;;;;;2.73;1.00;;;;;;;;;;4929416;28;20072;-65
2022/07/16 10:07:17;;;;;;;4.07;1.00;;;;;;;;;;4950581;29;20055;-65
2022/07/16 10:09:45;;;;;;;2.15;0.73;;;;;;;;;;4946098;28;20047;-65
2022/07/16 10:12:13;;;;;;;1.77;0.57;;;;;;;;;;4946930;29;20054;-65
2022/07/16 10:14:41;;;;;;;1.27;0.68;;;;;;;;;;4938743;28;20052;-65
2022/07/16 10:17:13;;;;;;;2.15;0.57;;;;;;;;;;4937487;29;20047;-65
2022/07/16 10:19:41;;;;;;;5.00;0.85;;;;;;;;;;4941065;28;20059;-65
2022/07/16 10:22:19;;;;;;;3.30;0.70;;;;;;;;;;4939472;28;20062;-65
2022/07/16 10:24:48;;;;;;;2.70;0.80;;;;;;;;;;4945931;28;20063;-65
2022/07/16 10:27:19;;;;;;;4.50;0.60;;;;;;;;;;4936083;28;20071;-65
2022/07/16 10:29:46;;;;;;;1.65;0.55;;;;;;;;;;4942830;28;20059;-65
2022/07/16 10:32:30;;;;;;;2.03;0.65;;;;;;;;;;4930837;29;20145;-65
2022/07/16 10:35:00;;;;;;;1.58;0.50;;;;;;;;;;4937341;29;20085;-65
2022/07/16 10:37:28;;;;;;;4.88;0.90;;;;;;;;;;4932899;28;20060;-66
2022/07/16 10:40:07;;;;;;;3.70;0.63;;;;;;;;;;4937536;29;20270;-65
2022/07/16 10:42:34;;;;;;;0.90;0.70;;;;;;;;;;4940242;28;20083;-65
2022/07/16 10:45:01;;;;;;;2.70;0.70;;;;;;;;;;4914942;28;20055;-65
2022/07/16 10:47:44;;;;;;;2.25;0.65;;;;;;;;;;4945806;28;20055;-65
2022/07/16 10:50:23;;;;;;;3.10;0.73;;;;;;;;;;4933703;29;20063;-65
2022/07/16 10:52:51;;;;;;;6.00;1.13;;;;;;;;;;4941799;29;20063;-66
2022/07/16 10:55:30;;;;;;;1.50;0.60;;;;;;;;;;4935128;28;20055;-65
2022/07/16 10:57:56;;;;;;;1.63;0.50;;;;;;;;;;4937491;29;20074;-65
2022/07/16 11:00:24;;;;;;;5.38;0.65;;;;;;;;;;4933388;29;20055;-65
2022/07/16 11:02:57;;;;;;;2.80;0.80;;;;;;;;;;4940050;28;20126;-65
2022/07/16 11:05:24;;;;;;;4.20;0.60;;;;;;;;;;4952796;28;20109;-65
2022/07/16 11:07:51;;;;;;;2.20;0.50;;;;;;;;;;4966005;28;20062;-65
2022/07/16 11:10:22;;;;;;;4.55;0.80;;;;;;;;;;4964619;28;20050;-65
2022/07/16 11:12:49;;;;;;;2.95;0.70;;;;;;;;;;4965831;28;20177;-65
2022/07/16 11:15:16;;;;;;;1.57;0.50;;;;;;;;;;4968841;28;20061;-65
2022/07/16 11:17:43;;;;;;;1.77;0.70;;;;;;;;;;4956426;28;20062;-65
2022/07/16 11:20:11;;;;;;;2.92;0.63;;;;;;;;;;4948688;28;20054;-66
2022/07/16 11:22:38;;;;;;;5.35;0.90;;;;;;;;;;4956878;28;20228;-65
2022/07/16 11:25:05;;;;;;;1.65;0.65;;;;;;;;;;4962489;28;20086;-65
2022/07/16 11:27:36;;;;;;;6.03;0.90;;;;;;;;;;4960785;28;20059;-65
2022/07/16 11:30:07;;;;;;;3.22;0.70;;;;;;;;;;4964500;28;20050;-66
2022/07/16 11:32:33;;;;;;;3.13;0.60;;;;;;;;;;4963145;28;20061;-66
2022/07/16 11:35:04;;;;;;;3.13;1.08;;;;;;;;;;4956002;28;20146;-66
2022/07/16 11:37:31;;;;;;;0.95;0.45;;;;;;;;;;4963413;28;20046;-66
2022/07/16 11:39:59;;;;;;;6.75;0.77;;;;;;;;;;4952847;28;20078;-66
2022/07/16 11:42:26;;;;;;;3.10;0.65;;;;;;;;;;4964431;28;20058;-65
2022/07/16 11:44:54;;;;;;;4.75;0.93;;;;;;;;;;4960259;28;20050;-65
2022/07/16 11:47:23;;;;;;;11.55;0.95;;;;;;;;;;4964521;28;20057;-65
2022/07/16 11:49:52;;;;;;;6.43;0.90;;;;;;;;;;4963593;28;20057;-65
2022/07/16 11:52:22;;;;;;;3.67;0.65;;;;;;;;;;4961358;28;20054;-65
2022/07/16 11:54:50;;;;;;;3.28;0.75;;;;;;;;;;4963746;28;20062;-65
2022/07/16 11:57:16;;;;;;;2.17;0.60;;;;;;;;;;4959900;28;20050;-65
2022/07/16 11:59:47;;;;;;;4.60;0.98;;;;;;;;;;4965711;28;20061;-65
2022/07/16 12:02:17;;;;;;;3.90;0.90;;;;;;;;;;4959104;28;20057;-65
2022/07/16 12:04:44;;;;;;;4.55;0.75;;;;;;;;;;4962393;28;20062;-65
2022/07/16 12:07:12;;;;;;;11.93;0.77;;;;;;;;;;4960638;28;20148;-65
2022/07/16 12:09:40;;;;;;;2.58;0.90;;;;;;;;;;4961245;28;20061;-66
2022/07/16 12:12:08;;;;;;;3.10;0.70;;;;;;;;;;4963069;28;20183;-66
2022/07/16 12:14:45;;;;;;;2.20;0.70;;;;;;;;;;4960996;28;20082;-66
2022/07/16 12:17:24;;;;;;;6.47;0.90;;;;;;;;;;4965094;28;20145;-65
2022/07/16 12:20:12;;;;;;;2.25;0.70;;;;;;;;;;4956866;28;20069;-66
2022/07/16 12:22:39;;;;;;;;;;;;;;;;;;4982143;28;20141;-65
2022/07/16 12:25:16;;;;;;;5.63;1.00;;;;;;;;;;4953062;28;19949;-65
2022/07/16 12:27:46;;;;;;;2.60;0.65;;;;;;;;;;4959236;28;20106;-65
2022/07/16 12:30:14;;;;;;;2.60;0.60;;;;;;;;;;4950130;28;20059;-66
2022/07/16 12:32:48;;;;;;;2.87;0.63;;;;;;;;;;4962535;28;20058;-66
2022/07/16 12:35:29;;;;;;;3.70;0.60;;;;;;;;;;4956434;28;20054;-65
2022/07/16 12:37:56;;;;;;;3.33;0.70;;;;;;;;;;4960421;28;20072;-65
2022/07/16 12:40:25;;;;;;;6.35;0.70;;;;;;;;;;4959499;28;20053;-65
2022/07/16 12:42:51;;;;;;;2.15;0.75;;;;;;;;;;4960682;28;20058;-66
2022/07/16 12:45:18;;;;;;;3.70;0.88;;;;;;;;;;4959242;28;20054;-66
2022/07/16 12:47:45;;;;;;;2.55;0.75;;;;;;;;;;4957700;28;20050;-65
2022/07/16 12:50:13;;;;;;;5.45;0.93;;;;;;;;;;4953730;28;20051;-66
2022/07/16 12:52:41;;;;;;;2.08;0.73;;;;;;;;;;4957629;28;20051;-65
2022/07/16 13:00:39;;;;;;;5.32;1.40;;;;;;;;;;4956589;28;20067;-66
2022/07/16 13:03:05;;;;;;;2.22;0.60;;;;;;;;;;4953667;28;20061;-66
2022/07/16 13:05:33;;;;;;;3.90;0.80;;;;;;;;;;4919014;28;20086;-66
2022/07/16 13:08:00;;;;;;;4.22;0.90;;;;;;;;;;4942778;28;20154;-66
2022/07/16 13:10:27;;;;;;;1.60;0.50;;;;;;;;;;4933636;28;20055;-66
2022/07/16 13:12:53;;;;;;;3.17;0.77;;;;;;;;;;4940340;28;20058;-65
2022/07/16 13:15:20;;;;;;;4.43;0.90;;;;;;;;;;4940741;29;20055;-66
2022/07/16 13:17:47;;;;;;;4.78;0.80;;;;;;;;;;4936340;28;20147;-65
2022/07/16 13:20:14;;;;;;;1.80;0.55;;;;;;;;;;4939518;28;20051;-65
2022/07/16 13:22:42;;;;;;;3.10;0.60;;;;;;;;;;4934088;28;20142;-65
2022/07/16 13:25:10;;;;;;;1.13;0.52;;;;;;;;;;4945230;28;20130;-66
2022/07/16 13:27:36;;;;;;;1.33;0.60;;;;;;;;;;4938064;28;20051;-66
2022/07/16 13:30:06;;;;;;;3.25;0.85;;;;;;;;;;4942540;29;20130;-65
2022/07/16 13:32:32;;;;;;;1.60;0.70;;;;;;;;;;4939546;28;20055;-66
2022/07/16 13:34:59;;;;;;;2.63;0.50;;;;;;;;;;4938621;28;20051;-65
2022/07/16 13:37:26;;;;;;;3.83;0.60;;;;;;;;;;4942524;28;20127;-65
2022/07/16 13:39:55;;;;;;;1.55;0.47;;;;;;;;;;4926600;28;20051;-65
2022/07/16 13:42:22;;;;;;;7.40;1.30;;;;;;;;;;4942293;28;20063;-65
2022/07/16 13:44:49;;;;;;;2.67;0.90;;;;;;;;;;4936173;28;20055;-65
2022/07/16 13:47:16;;;;;;;2.03;0.68;;;;;;;;;;4958347;28;20055;-66
2022/07/16 13:49:43;;;;;;;5.50;0.68;;;;;;;;;;4936211;28;20070;-66
2022/07/16 13:52:10;;;;;;;1.75;0.63;;;;;;;;;;4938767;28;20051;-66
2022/07/16 13:54:37;;;;;;;2.33;0.68;;;;;;;;;;4941275;28;20122;-66
2022/07/16 13:59:51;;;;;;;5.40;0.80;;;;;;;;;;4939095;29;20059;-66
2022/07/16 14:02:18;;;;;;;3.25;0.70;;;;;;;;;;4926726;28;20092;-66
2022/07/16 14:04:44;;;;;;;1.90;0.55;;;;;;;;;;4961261;28;20101;-66
2022/07/16 14:07:11;;;;;;;3.95;0.70;;;;;;;;;;4956385;28;20055;-66
2022/07/16 14:09:39;;;;;;;3.30;0.68;;;;;;;;;;4968697;28;20046;-66
2022/07/16 14:12:07;;;;;;;3.15;0.70;;;;;;;;;;4958391;28;20058;-65
2022/07/16 14:14:34;;;;;;;1.63;0.55;;;;;;;;;;4959762;28;20058;-66
2022/07/16 14:17:01;;;;;;;4.57;0.70;;;;;;;;;;4962312;28;20109;-66
2022/07/16 14:19:32;;;;;;;1.60;0.82;;;;;;;;;;4960075;28;20050;-66
2022/07/16 14:21:58;;;;;;;6.50;0.80;;;;;;;;;;4961869;28;20073;-65
2022/07/16 14:24:25;;;;;;;5.80;0.90;;;;;;;;;;4956560;28;20077;-65
2022/07/16 14:26:51;;;;;;;1.08;0.50;;;;;;;;;;4954209;28;20105;-65
2022/07/16 14:29:26;;;;;;;3.20;0.85;;;;;;;;;;4956607;28;20057;-66
2022/07/16 14:31:52;;;;;;;3.33;0.68;;;;;;;;;;4963680;28;20121;-65
2022/07/16 14:34:19;;;;;;;1.70;0.70;;;;;;;;;;4961496;28;20065;-65
2022/07/16 14:36:45;;;;;;;6.38;0.90;;;;;;;;;;4959323;28;20050;-66
2022/07/16 14:39:13;;;;;;;6.22;1.05;;;;;;;;;;4961618;28;20145;-66
2022/07/16 14:41:40;;;;;;;2.15;0.43;;;;;;;;;;4952779;28;20054;-65
2022/07/16 14:44:06;;;;;;;8.52;1.08;;;;;;;;;;4966636;28;20073;-65
2022/07/16 14:46:34;;;;;;;3.53;0.80;;;;;;;;;;4959867;28;20046;-65
2022/07/16 14:49:12;;;;;;;2.53;0.60;;;;;;;;;;4966339;28;20055;-65
2022/07/16 14:51:39;;;;;;;1.52;0.60;;;;;;;;;;4958183;28;20046;-65
2022/07/16 14:54:05;;;;;;;1.65;0.50;;;;;;;;;;4965656;28;20064;-66
2022/07/16 14:56:32;;;;;;;2.53;0.55;;;;;;;;;;4960290;28;20128;-66
2022/07/16 14:59:01;;;;;;;2.83;0.80;;;;;;;;;;4963542;28;20061;-66
2022/07/16 15:01:28;;;;;;;1.77;0.50;;;;;;;;;;4966381;28;20090;-66